Sutherlin, Virginia
Current Conditions -  °F | °C
As of 2:53 PM on Thursday 30 Oct 2014 (Local Time) from KDAN Reporting Station
Clear Clear  
Wind Chill: 65°   Ceiling: Unl
Heat Index: 65°   Visibility: 10mi
Dew Point: 36°   Wind: 3mph
Humidity: 34%   Direction: NA
Pressure: 30"   Gusts: NA
Location:  36.63°N, 79.21°W
Report Text: KDAN 301853Z AUTO VRB03KT 10SM CLR 18/02 A3000 RMK AO2 SLP151 T01830022
Loading
Personal Weather Stations






























Interactive Weather Map
Tropical Storm Tracking
New forecast layout! Learn more

10-Day Weather Forecast

Advertisements
Track Severe Weather on mobile